Time;durP1;ratioP1;P1;durP2;ratioP2;P2;SDS_P1;SDS_P2;PMS_P1;PMS_P2;Temp;Humidity;BMP_temperature;BMP_pressure;BME280_temperature;BME280_humidity;BME280_pressure;Samples;Min_cycle;Max_cycle;Signal;HPM_P1;HPM_P2
2022/08/10 00:00:21;;;;;;;11.70;4.50;;;15.40;99.90;;;16.31;100.00;100102.06;5065579;27;129141;-76
2022/08/10 00:02:50;;;;;;;6.50;3.83;;;15.40;99.90;;;16.31;100.00;100096.59;5079546;27;121673;-76
2022/08/10 00:05:20;;;;;;;8.63;4.40;;;15.40;99.90;;;16.32;100.00;100102.84;5062368;27;122491;-77
2022/08/10 00:07:49;;;;;;;7.57;4.25;;;15.40;99.90;;;16.30;100.00;100094.97;5080375;27;130061;-76
2022/08/10 00:10:24;;;;;;;6.40;4.03;;;15.40;99.90;;;16.20;100.00;100103.56;5080515;27;130066;-76
2022/08/10 00:12:52;;;;;;;7.63;4.30;;;15.40;99.90;;;16.05;100.00;100098.69;5080654;27;119660;-76
2022/08/10 00:15:23;;;;;;;6.75;4.30;;;15.30;99.90;;;15.98;100.00;100100.03;5080682;27;119624;-75
2022/08/10 00:17:52;;;;;;;6.45;4.18;;;15.30;99.90;;;15.93;100.00;100094.78;5080475;27;130063;-76
2022/08/10 00:20:20;;;;;;;6.28;4.20;;;15.30;99.90;;;15.92;100.00;100100.56;5065667;27;128350;-76
2022/08/10 00:22:50;;;;;;;7.18;4.18;;;15.30;99.90;;;15.80;100.00;100096.63;5065459;27;118391;-74
2022/08/10 00:25:21;;;;;;;7.30;4.20;;;15.30;99.90;;;15.68;100.00;100096.50;5062326;27;119445;-74
2022/08/10 00:27:49;;;;;;;7.70;4.13;;;15.20;99.90;;;15.69;100.00;100106.34;5063839;27;129394;-74
2022/08/10 00:30:18;;;;;;;7.88;4.28;;;15.20;99.90;;;15.75;100.00;100107.75;5079980;27;129580;-76
2022/08/10 00:32:47;;;;;;;8.75;4.45;;;15.30;99.90;;;15.69;100.00;100106.34;5065581;27;119176;-75
2022/08/10 00:35:16;;;;;;;7.63;3.90;;;15.20;99.90;;;15.64;100.00;100121.00;5080531;27;119347;-74
2022/08/10 00:37:44;;;;;;;8.05;4.18;;;15.20;99.90;;;15.57;100.00;100117.97;5080273;27;130225;-75
2022/08/10 00:40:14;;;;;;;9.20;4.63;;;15.20;99.90;;;15.54;100.00;100109.63;5080045;27;129254;-76
2022/08/10 00:42:44;;;;;;;7.88;4.35;;;15.20;99.90;;;15.58;100.00;100111.38;5080698;27;120068;-76
2022/08/10 00:45:13;;;;;;;8.40;4.05;;;15.20;99.90;;;15.60;100.00;100102.84;5080940;27;119364;-76
2022/08/10 00:47:42;;;;;;;8.85;4.30;;;15.20;99.90;;;15.53;100.00;100100.59;5065010;27;129309;-76
2022/08/10 00:50:11;;;;;;;10.40;5.00;;;15.20;99.90;;;15.49;100.00;100109.81;5079693;27;129884;-77
2022/08/10 00:52:40;;;;;;;8.43;4.60;;;15.20;99.90;;;15.43;100.00;100115.47;5079511;27;122332;-78
2022/08/10 00:55:09;;;;;;;10.32;4.72;;;15.10;99.90;;;15.42;100.00;100111.13;5065140;27;121825;-75
2022/08/10 00:57:39;;;;;;;6.90;4.03;;;15.10;99.90;;;15.38;100.00;100110.19;5064633;27;128805;-75
2022/08/10 01:00:11;;;;;;;8.88;4.82;;;15.10;99.90;;;15.44;100.00;100114.34;5086514;27;129437;-76
2022/08/10 01:02:40;;;;;;;6.75;4.00;;;15.10;99.90;;;15.45;100.00;100110.47;5067060;27;119970;-75
2022/08/10 01:05:13;;;;;;;7.30;4.47;;;15.10;99.90;;;15.42;100.00;100105.66;5083938;27;119812;-76
2022/08/10 01:08:18;;;;;;;7.45;4.35;;;15.00;99.90;;;15.42;100.00;100100.19;5083163;27;130086;-77
2022/08/10 01:10:59;;;;;;;6.63;4.35;;;15.00;99.90;;;15.46;100.00;100106.59;5051811;27;128859;-77
2022/08/10 01:13:38;;;;;;;8.90;4.78;;;15.00;99.90;;;15.38;100.00;100103.91;5082270;27;119343;-76
2022/08/10 01:16:18;;;;;;;8.70;4.13;;;15.00;99.90;;;15.34;100.00;100097.50;5068463;27;118408;-76
2022/08/10 01:18:55;;;;;;;9.80;4.45;;;15.00;99.90;;;15.30;100.00;100102.03;5082022;27;129698;-76
2022/08/10 01:22:11;;;;;;;6.72;4.25;;;15.00;99.90;;;15.26;100.00;100097.19;5083147;27;129989;-79
2022/08/10 01:25:30;;;;;;;12.35;4.50;;;15.00;99.90;;;15.16;100.00;100104.97;5083415;27;119707;-77
2022/08/10 01:28:15;;;;;;;8.82;4.35;;;14.90;99.90;;;15.10;100.00;100102.41;4965996;28;118625;-79
2022/08/10 01:30:46;;;;;;;8.10;4.50;;;14.90;99.90;;;15.07;100.00;100097.59;4965880;28;128764;-78
2022/08/10 01:33:25;;;;;;;8.60;4.72;;;14.90;99.90;;;15.10;100.00;100098.91;4949640;28;129126;-76
2022/08/10 01:35:59;;;;;;;7.88;4.80;;;14.90;99.90;;;15.13;100.00;100091.94;4964324;28;119322;-75
2022/08/10 01:38:33;;;;;;;8.35;5.30;;;14.90;99.90;;;15.16;100.00;100105.78;4966092;28;118896;-77
2022/08/10 01:41:07;;;;;;;9.00;4.82;;;14.90;99.90;;;15.07;100.00;100100.34;4978839;28;130842;-75
2022/08/10 01:43:41;;;;;;;6.32;4.18;;;14.80;99.90;;;15.02;100.00;100100.53;4981893;28;129408;-76
2022/08/10 01:46:14;;;;;;;7.55;4.53;;;14.70;99.90;;;15.07;100.00;100103.06;4964338;28;121087;-75
2022/08/10 01:48:48;;;;;;;8.15;4.85;;;14.80;99.90;;;15.14;100.00;100099.03;4980065;28;121975;-76
2022/08/10 01:51:23;;;;;;;8.98;4.80;;;14.70;99.90;;;15.15;100.00;100100.66;4978992;28;129944;-78
2022/08/10 01:53:58;;;;;;;7.55;3.85;;;14.80;99.90;;;15.20;100.00;100108.66;4978843;28;130380;-76
2022/08/10 01:56:31;;;;;;;6.80;4.70;;;14.80;99.90;;;15.19;100.00;100101.56;4965415;28;119065;-75
2022/08/10 01:59:04;;;;;;;7.13;4.20;;;14.80;99.90;;;15.10;100.00;100105.16;4981514;28;120541;-75
2022/08/10 02:01:41;;;;;;;8.90;4.85;;;14.70;99.90;;;15.15;100.00;100108.84;5013723;27;130056;-75
2022/08/10 02:04:13;;;;;;;7.82;4.65;;;14.80;99.90;;;15.16;100.00;100113.16;5067613;27;128314;-73
2022/08/10 02:06:46;;;;;;;10.02;4.97;;;14.70;99.90;;;15.06;100.00;100103.41;5082858;27;119521;-76
2022/08/10 02:09:19;;;;;;;7.97;5.18;;;14.70;99.90;;;14.97;100.00;100108.88;5082591;27;119295;-75
2022/08/10 02:11:51;;;;;;;9.13;4.63;;;14.60;99.90;;;14.91;100.00;100107.44;5065029;27;128571;-76
2022/08/10 02:14:20;;;;;;;10.05;5.20;;;14.70;99.90;;;14.86;100.00;100104.91;5082395;27;129556;-76
2022/08/10 02:16:52;;;;;;;7.53;4.65;;;14.60;99.90;;;14.87;100.00;100117.44;5082425;27;119480;-75
2022/08/10 02:19:25;;;;;;;9.30;5.35;;;14.60;99.90;;;14.81;100.00;100116.00;5067352;27;118219;-75
2022/08/10 02:21:55;;;;;;;8.57;5.50;;;14.60;99.90;;;14.75;100.00;100112.63;5063830;27;130650;-76
2022/08/10 02:24:27;;;;;;;8.93;4.97;;;14.60;99.90;;;14.78;100.00;100111.19;5081987;27;129786;-75
2022/08/10 02:26:57;;;;;;;10.88;5.35;;;14.50;99.90;;;14.81;100.00;100113.28;5064209;27;119625;-76
2022/08/10 02:29:27;;;;;;;10.40;5.80;;;14.50;99.90;;;14.87;100.00;100122.91;5082525;27;119993;-76
2022/08/10 02:31:58;;;;;;;9.65;5.63;;;14.50;99.90;;;14.95;100.00;100111.16;5081890;27;130091;-76
2022/08/10 02:34:28;;;;;;;11.55;5.47;;;14.50;99.90;;;14.90;100.00;100119.53;5081987;27;130071;-75
2022/08/10 02:36:58;;;;;;;7.72;4.97;;;14.50;99.90;;;14.74;100.00;100117.31;5081091;27;122492;-73
2022/08/10 02:39:27;;;;;;;8.68;4.72;;;14.40;99.90;;;14.73;100.00;100120.38;5066921;27;121177;-77
2022/08/10 02:42:02;;;;;;;9.23;5.15;;;14.40;99.90;;;14.85;100.00;100119.69;5081638;27;129803;-77
2022/08/10 02:44:38;;;;;;;9.30;5.18;;;14.50;99.90;;;14.91;100.00;100121.13;5066978;27;129586;-74
2022/08/10 02:47:13;;;;;;;9.13;4.97;;;14.40;99.90;;;14.92;100.00;100114.53;5081119;27;120600;-75
2022/08/10 02:49:49;;;;;;;8.10;4.93;;;14.40;99.90;;;14.89;100.00;100126.09;5081836;27;119321;-75
2022/08/10 02:52:25;;;;;;;9.45;5.18;;;14.40;99.90;;;14.91;100.00;100115.66;5081413;27;131118;-76
2022/08/10 02:55:00;;;;;;;10.48;5.20;;;14.40;99.90;;;14.78;100.00;100119.41;5081969;27;129459;-75
2022/08/10 02:57:37;;;;;;;8.38;4.88;;;14.40;99.90;;;14.83;100.00;100121.94;5082188;27;119685;-77
2022/08/10 03:00:08;;;;;;;8.88;5.20;;;14.40;99.90;;;14.80;100.00;100117.13;5082036;27;119436;-76
2022/08/10 03:02:42;;;;;;;8.43;4.80;;;14.40;99.90;;;14.88;100.00;100125.31;5080099;27;131485;-76
2022/08/10 03:05:14;;;;;;;9.32;4.80;;;14.40;99.90;;;15.00;100.00;100121.91;5066154;27;129488;-75
2022/08/10 03:07:49;;;;;;;8.48;4.90;;;14.40;99.90;;;15.08;100.00;100126.56;5066813;27;118724;-76
2022/08/10 03:10:21;;;;;;;10.02;5.32;;;14.50;99.90;;;15.18;100.00;100128.13;5084142;27;118975;-77
2022/08/10 03:12:55;;;;;;;8.98;4.75;;;14.50;99.90;;;15.28;100.00;100125.00;5066101;27;128968;-76
2022/08/10 03:15:25;;;;;;;14.85;5.80;;;14.60;99.90;;;15.43;100.00;100128.34;5066130;27;128755;-76
2022/08/10 03:17:57;;;;;;;8.45;4.88;;;14.60;99.90;;;15.52;100.00;100131.03;5081511;27;120151;-74
2022/08/10 03:20:27;;;;;;;8.15;4.40;;;14.60;99.90;;;15.59;100.00;100136.78;5081889;27;119885;-76
2022/08/10 03:22:57;;;;;;;10.13;5.53;;;14.60;99.90;;;15.72;100.00;100135.78;5080694;27;131308;-76
2022/08/10 03:25:27;;;;;;;7.28;4.30;;;14.70;99.90;;;15.83;100.00;100136.19;5081007;27;130431;-76
2022/08/10 03:27:56;;;;;;;10.23;5.03;;;14.80;99.90;;;15.93;100.00;100130.34;5080197;27;121977;-75
2022/08/10 03:30:24;;;;;;;7.68;4.70;;;14.90;99.90;;;15.85;100.00;100135.88;5066250;27;122499;-77
2022/08/10 03:32:56;;;;;;;10.00;4.85;;;14.90;99.90;;;15.87;100.00;100130.88;5062640;27;130166;-74
2022/08/10 03:35:26;;;;;;;9.93;4.60;;;14.90;99.90;;;15.95;100.00;100128.06;5065870;27;129328;-74
2022/08/10 03:37:55;;;;;;;9.07;4.93;;;14.90;99.90;;;15.98;100.00;100138.34;5062692;27;119631;-75
2022/08/10 03:40:25;;;;;;;7.18;4.38;;;14.90;99.90;;;15.92;100.00;100133.41;5081200;27;119613;-75
2022/08/10 03:42:56;;;;;;;8.70;4.40;;;14.90;99.90;;;15.76;100.00;100136.69;5065761;27;128664;-74
2022/08/10 03:45:27;;;;;;;7.97;4.78;;;14.80;99.90;;;15.55;100.00;100124.91;5066398;27;129747;-74
2022/08/10 03:48:00;;;;;;;6.93;4.15;;;14.70;99.90;;;15.59;100.00;100128.59;5081241;27;120462;-76
2022/08/10 03:50:30;;;;;;;7.25;3.92;;;14.70;99.90;;;15.73;100.00;100129.16;5080895;27;120112;-74
2022/08/10 03:52:59;;;;;;;9.55;4.80;;;14.80;99.90;;;15.81;100.00;100133.00;5064512;27;130287;-74
2022/08/10 03:55:28;;;;;;;6.95;4.07;;;14.90;99.90;;;15.78;100.00;100123.53;5065605;27;129106;-75
2022/08/10 03:57:57;;;;;;;8.60;4.43;;;14.90;99.90;;;15.84;100.00;100126.06;5081939;27;119458;-76
2022/08/10 04:00:27;;;;;;;8.27;4.88;;;14.90;99.90;;;15.80;100.00;100132.22;5080949;27;119106;-76
2022/08/10 04:02:58;;;;;;;6.90;4.22;;;14.90;99.90;;;15.80;100.00;100131.41;5080180;27;129740;-74
2022/08/10 04:05:28;;;;;;;11.57;5.00;;;15.00;99.90;;;16.02;100.00;100121.28;5062400;27;129402;-77
2022/08/10 04:07:57;;;;;;;8.75;4.78;;;15.10;99.90;;;16.17;100.00;100135.19;5080829;27;119721;-73
2022/08/10 04:10:26;;;;;;;7.40;4.60;;;15.20;99.90;;;16.13;100.00;100131.50;5081200;27;119949;-74
2022/08/10 04:12:55;;;;;;;7.28;4.30;;;15.10;99.90;;;16.23;100.00;100133.03;5080400;27;129971;-76
2022/08/10 04:15:24;;;;;;;8.45;4.50;;;15.20;99.90;;;16.29;100.00;100125.44;5080307;27;129647;-76
2022/08/10 04:17:53;;;;;;;7.18;4.32;;;15.20;99.90;;;16.33;100.00;100132.63;5079367;27;122024;-73
2022/08/10 04:20:31;;;;;;;6.85;4.13;;;15.10;99.90;;;16.40;100.00;100137.56;5062304;27;122583;-73
2022/08/10 04:23:05;;;;;;;6.88;4.07;;;15.20;99.90;;;16.38;100.00;100134.38;5080659;27;130685;-75
2022/08/10 04:25:34;;;;;;;7.13;3.90;;;15.20;99.90;;;16.22;100.00;100130.63;5080380;27;130212;-74
2022/08/10 04:28:03;;;;;;;6.70;3.70;;;15.20;99.90;;;16.41;100.00;100139.19;5080562;27;120339;-75
2022/08/10 04:30:35;;;;;;;5.93;3.78;;;15.40;99.90;;;16.58;100.00;100131.94;5063018;27;118273;-75
2022/08/10 04:33:07;;;;;;;9.05;3.92;;;15.60;99.90;;;16.64;100.00;100131.41;5079123;27;130433;-75
2022/08/10 04:35:39;;;;;;;8.40;3.58;;;15.60;99.90;;;16.75;100.00;100133.72;5068882;27;129064;-74
2022/08/10 04:38:08;;;;;;;6.22;3.72;;;15.70;99.90;;;16.54;100.00;100135.34;5083673;27;120282;-75
2022/08/10 04:40:37;;;;;;;6.35;3.78;;;15.60;99.90;;;16.53;100.00;100133.75;5053894;27;118555;-75
2022/08/10 04:43:08;;;;;;;6.00;3.17;;;15.60;99.90;;;16.81;100.00;100130.44;5069359;27;129692;-75
2022/08/10 04:45:36;;;;;;;9.23;3.90;;;15.90;99.90;;;16.99;100.00;100131.06;5067340;27;128768;-73
2022/08/10 04:48:05;;;;;;;6.32;3.72;;;16.00;99.90;;;17.10;100.00;100142.41;5065055;27;120162;-76
2022/08/10 04:50:34;;;;;;;7.43;3.72;;;16.00;99.90;;;17.14;100.00;100132.38;5068632;27;118896;-75
2022/08/10 04:53:04;;;;;;;10.88;3.63;;;16.00;99.90;;;17.16;100.00;100132.81;5064932;27;129832;-76
2022/08/10 04:55:33;;;;;;;9.77;3.78;;;16.00;99.90;;;17.12;100.00;100123.66;5082949;27;129702;-77
2022/08/10 04:58:01;;;;;;;6.45;3.92;;;16.00;99.90;;;17.42;99.78;100123.47;5067237;27;118767;-76
2022/08/10 05:00:30;;;;;;;7.32;3.65;;;16.30;99.90;;;17.68;97.26;100128.63;5069025;27;119024;-77
2022/08/10 05:02:58;;;;;;;5.70;3.58;;;16.30;99.90;;;17.79;96.69;100123.47;5083666;27;130352;-80
2022/08/10 05:05:29;;;;;;;6.53;3.40;;;16.50;99.90;;;17.85;95.47;100126.78;5088243;27;102801;-76
2022/08/10 05:07:57;;;;;;;6.18;3.75;;;16.60;99.90;;;18.14;94.80;100128.47;5081017;27;122553;-76
2022/08/10 05:10:27;;;;;;;5.85;3.05;;;16.80;99.90;;;18.56;93.15;100127.28;5076762;27;121641;-74
2022/08/10 05:12:56;;;;;;;5.53;3.03;;;17.10;99.90;;;18.53;91.08;100112.31;5066884;27;128687;-74
2022/08/10 05:15:26;;;;;;;6.28;3.42;;;17.00;99.90;;;18.31;93.35;100122.69;5067536;27;129145;-77
2022/08/10 05:17:54;;;;;;;6.32;3.38;;;17.00;99.90;;;18.41;92.14;100131.59;5068066;27;118398;-73
2022/08/10 05:20:23;;;;;;;6.18;3.35;;;17.00;99.90;;;18.49;92.62;100122.41;5081167;27;119601;-74
2022/08/10 05:22:51;;;;;;;5.43;2.95;;;17.20;99.90;;;18.73;90.86;100127.00;5081925;27;130475;-75
2022/08/10 05:25:20;;;;;;;6.97;3.20;;;17.40;99.90;;;18.74;90.04;100125.03;5076266;27;129458;-73
2022/08/10 05:27:51;;;;;;;5.82;2.95;;;17.30;99.90;;;18.57;90.24;100129.69;5082753;27;120095;-74
2022/08/10 05:30:22;;;;;;;6.22;2.75;;;17.40;99.90;;;18.56;90.09;100130.84;5082609;27;119541;-76
2022/08/10 05:32:50;;;;;;;7.28;3.28;;;17.40;99.90;;;18.69;90.38;100121.38;5073331;27;129950;-73
2022/08/10 05:35:19;;;;;;;6.32;2.72;;;17.50;99.90;;;19.18;88.46;100125.03;5046726;27;128434;-75
2022/08/10 05:37:50;;;;;;;6.63;3.03;;;18.00;99.90;;;19.22;87.29;100121.22;5062000;27;119414;-74
2022/08/10 05:40:19;;;;;;;5.95;2.85;;;17.90;99.90;;;19.26;86.91;100126.00;5062351;27;119167;-74
2022/08/10 05:42:47;;;;;;;4.60;2.92;;;18.00;99.90;;;19.33;85.74;100121.47;5042407;27;130049;-73
2022/08/10 05:45:22;;;;;;;4.57;3.15;;;18.00;99.90;;;19.39;86.16;100122.03;5061549;27;129322;-74
2022/08/10 05:47:50;;;;;;;5.57;2.97;;;18.20;99.90;;;19.43;85.59;100124.84;5042854;27;120169;-75
2022/08/10 05:50:23;;;;;;;6.32;2.97;;;18.10;99.90;;;19.51;86.18;100123.84;5062325;27;119659;-75
2022/08/10 05:52:52;;;;;;;7.78;2.67;;;18.20;99.90;;;19.49;86.32;100118.72;5045223;27;129816;-74
2022/08/10 05:55:22;;;;;;;5.55;2.78;;;18.30;99.90;;;19.03;88.65;100123.88;5028996;27;129056;-72
2022/08/10 05:57:51;;;;;;;6.18;2.95;;;18.00;99.90;;;18.96;89.30;100112.69;5044345;27;121465;-73
2022/08/10 06:00:23;;;;;;;5.05;2.92;;;18.10;99.90;;;19.13;87.97;100123.34;5046078;27;121094;-70
2022/08/10 06:02:56;;;;;;;4.57;2.90;;;18.20;99.90;;;19.53;86.95;100124.31;5044986;27;129579;-72
2022/08/10 06:05:28;;;;;;;4.45;2.60;;;18.40;99.90;;;19.59;85.26;100117.38;5076911;27;129943;-76
2022/08/10 06:08:02;;;;;;;6.30;2.83;;;18.60;93.40;;;19.98;84.51;100117.50;5081445;27;119533;-75
2022/08/10 06:10:31;;;;;;;4.60;2.40;;;18.70;96.80;;;20.07;82.38;100115.34;5066821;27;117850;-73
2022/08/10 06:15:52;;;;;;;4.28;2.38;;;19.10;80.80;;;20.24;82.59;100118.81;5066139;27;129304;-74
2022/08/10 06:18:22;;;;;;;4.40;2.53;;;19.10;84.10;;;19.57;84.83;100114.19;5081838;27;119379;-74
2022/08/10 06:20:52;;;;;;;5.43;2.35;;;18.70;92.10;;;19.52;85.30;100106.19;5066711;27;118954;-73
2022/08/10 06:23:21;;;;;;;4.78;2.38;;;18.80;78.30;;;19.72;85.41;100116.09;5076335;27;130233;-75
2022/08/10 06:25:49;;;;;;;4.45;2.38;;;19.00;90.30;;;19.99;84.01;100113.59;5066705;27;128681;-71
2022/08/10 06:28:20;;;;;;;5.25;2.35;;;19.10;79.60;;;20.41;81.26;100123.94;5064096;27;119190;-73
2022/08/10 06:30:53;;;;;;;4.72;2.75;;;19.30;65.20;;;20.86;78.87;100116.13;5081974;27;119479;-74
2022/08/10 06:33:24;;;;;;;5.72;2.20;;;19.50;57.80;;;20.70;78.13;100119.00;5081915;27;129962;-73
2022/08/10 06:35:56;;;;;;;5.63;1.98;;;19.50;41.40;;;21.01;72.47;100123.50;5060439;27;128302;-77
2022/08/10 06:38:26;;;;;;;3.58;1.60;;;19.90;2.50;;;21.15;68.62;100122.94;5081105;27;122163;-73
2022/08/10 06:41:00;;;;;;;4.30;1.55;;;20.00;1.00;;;20.91;69.35;100126.88;5049744;27;119479;-75
2022/08/10 06:43:31;;;;;;;1.70;1.27;;;20.00;1.00;;;20.93;68.85;100121.00;5058593;27;130567;-74
2022/08/10 06:46:08;;;;;;;2.80;1.50;;;20.00;1.00;;;21.21;69.60;100119.88;5061155;27;129301;-76
2022/08/10 06:48:46;;;;;;;2.90;1.27;;;20.20;1.00;;;21.95;67.62;100127.75;5059725;27;121556;-75
2022/08/10 06:51:22;;;;;;;4.07;1.55;;;20.80;1.00;;;22.20;65.78;100119.78;5061339;27;121756;-76
2022/08/10 06:53:56;;;;;;;2.92;1.20;;;21.00;1.00;;;22.22;65.23;100127.72;5060974;27;130466;-77
2022/08/10 06:56:28;;;;;;;2.72;1.25;;;20.90;1.00;;;22.04;65.28;100128.28;5059757;27;129900;-74
2022/08/10 06:59:03;;;;;;;3.72;1.48;;;20.80;1.00;;;21.75;67.85;100132.59;5046228;27;118340;-75
2022/08/10 07:01:36;;;;;;;2.60;1.37;;;20.50;1.00;;;21.81;67.60;100135.84;5061415;27;119294;-76
2022/08/10 07:04:11;;;;;;;2.10;1.40;;;20.50;1.00;;;21.35;68.24;100137.47;5061268;27;129657;-74
2022/08/10 07:06:45;;;;;;;3.10;1.48;;;20.10;1.00;;;21.26;69.67;100138.91;5029536;27;128828;-75
2022/08/10 07:09:17;;;;;;;3.42;1.50;;;20.20;1.00;;;21.41;68.74;100137.97;5061624;27;119539;-74
2022/08/10 07:11:49;;;;;;;3.15;1.30;;;20.20;1.00;;;21.34;68.30;100137.84;5062736;27;119696;-72
2022/08/10 07:14:20;;;;;;;7.20;1.55;;;20.20;1.00;;;21.46;68.16;100142.41;5062892;27;130015;-75
2022/08/10 07:16:52;;;;;;;3.55;1.30;;;20.40;1.00;;;21.50;67.90;100141.31;5064074;27;129327;-74
2022/08/10 07:19:24;;;;;;;7.82;1.67;;;20.30;1.00;;;21.18;67.82;100141.53;5062230;27;120134;-73
2022/08/10 07:21:53;;;;;;;4.30;1.48;;;20.10;1.00;;;21.06;67.91;100140.91;5046095;27;119869;-74
2022/08/10 07:24:25;;;;;;;5.10;1.52;;;20.00;1.00;;;21.08;68.54;100144.88;5047494;27;129812;-74
2022/08/10 07:26:56;;;;;;;3.47;1.27;;;20.20;1.00;;;21.10;68.96;100144.53;5062782;27;130693;-76
2022/08/10 07:29:29;;;;;;;2.97;1.40;;;20.10;1.00;;;21.11;69.09;100146.13;5061900;27;118928;-73
2022/08/10 07:32:00;;;;;;;2.00;1.10;;;20.10;1.00;;;21.49;65.67;100147.22;5046621;27;118367;-74
2022/08/10 07:34:30;;;;;;;3.22;1.27;;;20.40;1.00;;;21.81;64.86;100144.91;5045494;27;129374;-76
2022/08/10 07:37:03;;;;;;;2.33;1.30;;;20.70;1.00;;;21.39;66.03;100154.09;5060832;27;129428;-74
2022/08/10 07:39:44;;;;;;;3.50;1.45;;;20.30;1.00;;;21.46;65.85;100154.22;5059363;27;121744;-71
2022/08/10 07:42:15;;;;;;;4.50;1.33;;;20.40;1.00;;;21.99;63.36;100152.69;5045765;27;121605;-72
2022/08/10 07:44:46;;;;;;;2.05;1.20;;;20.70;1.00;;;21.96;62.78;100153.44;5060418;27;130030;-74
2022/08/10 07:47:21;;;;;;;2.08;1.20;;;20.80;1.00;;;21.56;64.94;100147.31;5054412;27;129198;-77
2022/08/10 07:49:51;;;;;;;2.57;1.20;;;20.50;1.00;;;21.52;65.38;100152.00;5080867;27;119611;-75
2022/08/10 07:52:25;;;;;;;4.68;1.50;;;20.50;1.00;;;21.27;66.43;100151.53;5076354;27;119974;-73
2022/08/10 07:54:57;;;;;;;3.07;1.20;;;20.30;1.00;;;21.34;66.52;100157.16;5048613;27;129127;-74
2022/08/10 07:57:31;;;;;;;2.28;1.30;;;20.30;1.00;;;21.47;65.80;100152.25;5065677;27;129273;-76
2022/08/10 08:00:05;;;;;;;2.30;1.40;;;20.50;1.00;;;21.68;64.43;100154.59;5080954;27;119519;-72
2022/08/10 08:02:48;;;;;;;2.95;1.55;;;20.70;1.00;;;21.73;63.84;100148.75;5080843;27;119694;-76
2022/08/10 08:05:19;;;;;;;4.63;1.48;;;20.70;1.00;;;21.97;62.66;100149.47;5079296;27;130687;-76
2022/08/10 08:07:50;;;;;;;2.92;1.30;;;20.80;1.00;;;22.88;61.62;100146.69;5081817;27;129999;-74
2022/08/10 08:10:20;;;;;;;4.35;1.17;;;21.70;1.00;;;22.61;58.93;100147.59;5084695;27;119707;-75
2022/08/10 08:12:49;;;;;;;2.63;1.33;;;21.30;1.00;;;22.47;61.43;100150.19;5070356;27;119804;-74
2022/08/10 08:15:22;;;;;;;3.35;1.73;;;21.10;1.00;;;22.87;58.06;100145.88;5085748;27;130017;-73
2022/08/10 08:17:54;;;;;;;3.28;1.40;;;21.50;1.00;;;22.52;59.18;100158.16;5084714;27;129186;-75
2022/08/10 08:20:25;;;;;;;3.45;1.40;;;21.40;1.00;;;22.54;59.18;100155.00;5084463;27;119690;-74
2022/08/10 08:22:54;;;;;;;3.50;1.30;;;21.30;1.00;;;22.51;59.30;100156.53;5084673;27;119842;-73
2022/08/10 08:25:24;;;;;;;2.80;1.20;;;21.10;1.00;;;22.33;60.04;100155.53;5069067;27;128650;-74
2022/08/10 08:27:55;;;;;;;3.53;1.23;;;20.90;1.00;;;22.05;62.02;100160.28;5083918;27;129680;-74
2022/08/10 08:30:24;;;;;;;2.42;1.25;;;20.70;1.00;;;22.29;60.55;100155.44;5068004;27;121295;-73
2022/08/10 08:32:55;;;;;;;3.10;1.30;;;20.90;1.00;;;22.50;58.20;100154.97;5084179;27;121765;-74
2022/08/10 08:35:31;;;;;;;3.38;1.13;;;21.10;1.00;;;22.69;57.87;100153.19;5083931;27;130207;-75
2022/08/10 08:38:01;;;;;;;2.25;1.15;;;21.30;1.00;;;22.70;57.52;100152.00;5083980;27;129606;-75
2022/08/10 08:40:35;;;;;;;3.80;1.20;;;21.40;1.00;;;22.88;56.06;100150.25;5083993;27;119882;-74
2022/08/10 08:43:23;;;;;;;2.63;1.40;;;21.50;1.00;;;22.93;56.61;100149.09;5084132;27;120208;-76
2022/08/10 08:46:27;;;;;;;4.03;1.35;;;21.60;1.00;;;23.49;54.23;100147.25;5065317;27;130372;-77
2022/08/10 08:49:39;;;;;;;1.63;1.27;;;22.00;1.00;;;23.79;54.18;100137.97;5084065;27;129891;-73
2022/08/10 08:52:24;;;;;;;3.47;1.48;;;22.30;1.00;;;24.11;53.51;100131.88;5065559;27;119687;-72
2022/08/10 08:55:09;;;;;;;2.55;1.30;;;22.50;1.00;;;23.86;53.99;100140.81;5084004;27;119485;-75
2022/08/10 08:57:51;;;;;;;4.22;1.50;;;22.40;1.00;;;23.44;54.88;100140.09;5081946;27;130903;-76
2022/08/10 09:00:34;;;;;;;2.72;1.30;;;22.00;1.00;;;24.26;52.44;100132.72;5083492;27;129565;-76
2022/08/10 09:03:36;;;;;;;3.78;1.50;;;22.50;1.00;;;24.55;51.43;100139.94;5049515;27;119016;-77
2022/08/10 09:06:29;;;;;;;2.85;1.60;;;22.90;1.00;;;24.11;52.91;100137.41;5065173;27;119186;-73
2022/08/10 09:09:35;;;;;;;4.53;1.40;;;22.50;1.00;;;24.78;51.67;100147.19;5062389;27;129894;-74
2022/08/10 09:12:22;;;;;;;3.28;1.50;;;23.20;1.00;;;24.23;53.05;100150.91;5062609;27;129792;-75
2022/08/10 09:15:09;;;;;;;2.13;1.30;;;22.50;1.00;;;23.81;55.05;100141.16;5062663;27;119310;-73
2022/08/10 09:17:45;;;;;;;;;;;22.10;1.00;;;23.71;54.28;100142.66;5063666;27;119666;-74
2022/08/10 09:20:22;;;;;;;3.07;1.27;;;22.20;1.00;;;23.33;54.32;100139.22;5062542;27;129977;-74
2022/08/10 09:23:01;;;;;;;2.40;1.23;;;21.90;1.00;;;22.97;55.45;100142.44;5062401;27;129512;-75
2022/08/10 09:25:35;;;;;;;3.45;1.60;;;21.50;1.00;;;22.85;56.36;100137.16;5061460;27;122458;-76
2022/08/10 09:28:07;;;;;;;2.42;1.40;;;21.60;1.00;;;23.26;55.47;100134.41;5047357;27;120450;-75
2022/08/10 09:30:44;;;;;;;4.47;1.63;;;21.80;1.00;;;23.20;55.03;100133.16;5062658;27;130551;-74
2022/08/10 09:33:16;;;;;;;2.80;1.35;;;21.80;1.00;;;23.36;54.85;100138.47;5062282;27;130014;-75
2022/08/10 09:35:55;;;;;;;3.95;1.27;;;22.00;1.00;;;22.98;53.54;100138.50;5047931;27;119205;-78
2022/08/10 09:38:38;;;;;;;2.03;1.13;;;21.60;1.00;;;22.98;53.85;100141.25;5062375;27;119499;-72
2022/08/10 09:41:22;;;;;;;2.92;1.25;;;21.80;1.00;;;22.80;54.12;100140.28;5059392;27;129554;-75
2022/08/10 09:44:06;;;;;;;2.00;1.00;;;21.60;1.00;;;23.20;54.11;100133.16;5082961;27;129730;-76
2022/08/10 09:47:08;;;;;;;4.15;1.27;;;22.10;1.00;;;23.82;52.94;100126.13;5083124;27;119573;-73
2022/08/10 09:49:54;;;;;;;2.22;1.00;;;22.50;1.00;;;23.95;51.41;100132.97;5058904;27;118983;-74
2022/08/10 09:52:33;;;;;;;2.67;1.30;;;22.40;1.00;;;23.92;51.73;100124.59;5081085;27;130005;-74
2022/08/10 09:55:17;;;;;;;7.40;1.42;;;22.40;1.00;;;24.16;51.72;100120.41;5082565;27;129982;-73
2022/08/10 09:57:58;;;;;;;2.33;1.20;;;22.80;1.00;;;24.34;50.75;100124.03;5083137;27;119511;-73
2022/08/10 10:00:35;;;;;;;3.65;1.48;;;22.80;1.00;;;23.72;51.98;100111.03;5082406;27;121302;-72
2022/08/10 10:03:16;;;;;;;2.35;1.17;;;22.20;1.00;;;23.65;51.91;100120.09;5082442;27;129918;-73
2022/08/10 10:05:56;;;;;;;2.67;1.45;;;22.00;1.00;;;23.49;51.41;100119.56;5082281;27;129451;-73
2022/08/10 10:08:32;;;;;;;4.20;1.20;;;22.00;1.00;;;23.62;51.33;100109.78;5082406;27;119913;-75
2022/08/10 10:11:17;;;;;;;2.22;1.08;;;22.10;1.00;;;24.15;49.24;100118.78;5082997;27;119414;-72
2022/08/10 10:14:06;;;;;;;3.25;1.30;;;22.40;1.00;;;24.51;49.20;100111.41;5081178;27;129785;-72
2022/08/10 10:16:51;;;;;;;2.85;1.13;;;22.80;1.00;;;24.30;47.58;100109.34;5082257;27;129625;-75
2022/08/10 10:19:46;;;;;;;2.75;1.20;;;22.60;1.00;;;25.27;46.89;100106.81;5063842;27;121417;-73
2022/08/10 10:22:43;;;;;;;1.67;0.90;;;23.40;1.00;;;25.27;44.45;100100.44;5082446;27;121827;-72
2022/08/10 10:25:23;;;;;;;4.45;1.30;;;23.30;1.00;;;25.82;42.93;100090.84;5081971;27;130559;-73
2022/08/10 10:28:14;;;;;;;2.22;1.00;;;23.80;1.00;;;25.75;43.46;100090.88;5081814;27;129803;-71
2022/08/10 10:30:57;;;;;;;2.35;1.10;;;23.70;1.00;;;25.67;43.71;100098.44;5066589;27;118581;-73
2022/08/10 10:33:37;;;;;;;2.90;1.00;;;23.80;1.00;;;26.06;42.62;100089.22;5082085;27;120009;-76
2022/08/10 10:36:09;;;;;;;2.10;1.00;;;24.20;1.00;;;26.24;41.62;100091.13;5082078;27;130402;-77